Aérodrome :
LOGIN :

S'inscrire | Disclaimer

   EN    FR    IT 

 










Légende :    VFR   VFR Marginal   IFR   IFR Intensif   IFR Très Intensif
Visi : 
Plafond : 
>= 8 km
>= 3000ft
5 à 8 km
1000 à 3000 ft
1500m à 5 km
500 à 1000 ft
800 à 1500m
200 à 500 ft
< 800m
< 200 ft
Symboles :   Orages  Brouillard  Fortes neiges  Fortes précipitations  Vent > 20 kt
SIGMETs :   Divers  Orages  Givrage  Turbulence  Onde Orograph.  Cendres Volcan.







- Altitude de l'aérodrome : 53 ft
- Code IATA : AGP


LEMG - Malaga

DERNIER METAR :
  • 200130Z 29007KT 9999 FEW018 10/08 Q1023 NOSIG

METARs EXPIRÉS :
  • 200100Z 29008KT 9999 FEW018 11/09 Q1023 NOSIG
  • 200030Z 28008KT 9999 FEW018 11/10 Q1023 NOSIG
  • 200000Z 29006KT 9999 FEW018 10/09 Q1023 NOSIG
  • 192330Z 29007KT 9999 FEW018 11/09 Q1023 NOSIG
  • 192300Z 29005KT 9999 FEW026 11/09 Q1023 NOSIG

TAF TAF LEMG
Valide du 20 à 00h jusqu'au 21 à 00h UTC


192300Z 2000/2024 29007KT 9999 FEW020 TX20/2012Z TN09/2006Z
PROB30
TEMPO 2000/2006 BKN014
BECMG 2010/2012 12007KT
BECMG 2016/2018 VRB02KT
BECMG 2021/2024 29006KT
Pas de NOTAMs connus pour ce terrain.



MET'MAP, la Météo Aéronautique d'un coup d'oeil ! - Copyright ORBIFLY Décembre 2007 - Disclaimer

ORBIFLY MET'MAP TEAM :

Programmation & Développement : Alexandra Zaïnal
Conception & Développement : Baudouin d'Aumeries
Co-Programmation & Développement : Marc-Olivier Méhu
Soutien technique & logistique : Manuel Goepfert

Contact : metmap@orbifly.com




SOURCES & CREDITS :

   NOAA